sensor_id;sensor_type;location;lat;lon;timestamp;P1;durP1;ratioP1;P2;durP2;ratioP2
11877;SDS011;5998;42.676;23.268;2022-10-16T00:01:34;8.83;;;6.87;;
11877;SDS011;5998;42.676;23.268;2022-10-16T00:04:02;8.37;;;7.00;;
11877;SDS011;5998;42.676;23.268;2022-10-16T00:06:30;8.87;;;6.87;;
11877;SDS011;5998;42.676;23.268;2022-10-16T00:08:57;7.70;;;6.90;;
11877;SDS011;5998;42.676;23.268;2022-10-16T00:11:24;10.97;;;7.30;;
11877;SDS011;5998;42.676;23.268;2022-10-16T00:13:55;8.33;;;6.80;;
11877;SDS011;5998;42.676;23.268;2022-10-16T00:16:24;7.47;;;6.67;;
11877;SDS011;5998;42.676;23.268;2022-10-16T00:18:51;8.07;;;6.57;;
11877;SDS011;5998;42.676;23.268;2022-10-16T00:21:20;12.97;;;6.87;;
11877;SDS011;5998;42.676;23.268;2022-10-16T00:23:49;7.60;;;6.80;;
11877;SDS011;5998;42.676;23.268;2022-10-16T00:26:17;9.00;;;6.67;;
11877;SDS011;5998;42.676;23.268;2022-10-16T00:28:45;8.80;;;6.97;;
11877;SDS011;5998;42.676;23.268;2022-10-16T00:31:12;8.77;;;6.70;;
11877;SDS011;5998;42.676;23.268;2022-10-16T00:33:39;7.53;;;6.67;;
11877;SDS011;5998;42.676;23.268;2022-10-16T00:36:06;8.50;;;6.53;;
11877;SDS011;5998;42.676;23.268;2022-10-16T00:38:37;7.93;;;6.67;;
11877;SDS011;5998;42.676;23.268;2022-10-16T00:41:04;9.63;;;6.77;;
11877;SDS011;5998;42.676;23.268;2022-10-16T00:43:41;7.07;;;6.37;;
11877;SDS011;5998;42.676;23.268;2022-10-16T00:46:10;8.80;;;6.33;;
11877;SDS011;5998;42.676;23.268;2022-10-16T00:48:41;6.97;;;6.13;;
11877;SDS011;5998;42.676;23.268;2022-10-16T00:51:11;7.70;;;6.27;;
11877;SDS011;5998;42.676;23.268;2022-10-16T00:53:40;8.80;;;6.80;;
11877;SDS011;5998;42.676;23.268;2022-10-16T00:56:07;7.30;;;6.60;;
11877;SDS011;5998;42.676;23.268;2022-10-16T00:58:33;9.63;;;6.83;;
11877;SDS011;5998;42.676;23.268;2022-10-16T01:01:00;9.40;;;7.13;;
11877;SDS011;5998;42.676;23.268;2022-10-16T01:03:28;9.60;;;7.17;;
11877;SDS011;5998;42.676;23.268;2022-10-16T01:05:59;9.00;;;6.53;;
11877;SDS011;5998;42.676;23.268;2022-10-16T01:08:37;9.17;;;6.97;;
11877;SDS011;5998;42.676;23.268;2022-10-16T01:11:12;8.30;;;6.47;;
11877;SDS011;5998;42.676;23.268;2022-10-16T01:13:46;9.17;;;6.70;;
11877;SDS011;5998;42.676;23.268;2022-10-16T01:16:21;8.10;;;6.10;;
11877;SDS011;5998;42.676;23.268;2022-10-16T01:18:56;8.63;;;6.30;;
11877;SDS011;5998;42.676;23.268;2022-10-16T01:21:29;9.03;;;7.40;;
11877;SDS011;5998;42.676;23.268;2022-10-16T01:24:03;8.10;;;6.73;;
11877;SDS011;5998;42.676;23.268;2022-10-16T01:26:37;8.70;;;7.00;;
11877;SDS011;5998;42.676;23.268;2022-10-16T01:29:21;7.97;;;6.90;;
11877;SDS011;5998;42.676;23.268;2022-10-16T01:31:53;8.63;;;6.40;;
11877;SDS011;5998;42.676;23.268;2022-10-16T01:34:28;9.10;;;7.13;;
11877;SDS011;5998;42.676;23.268;2022-10-16T01:37:01;11.20;;;7.13;;
11877;SDS011;5998;42.676;23.268;2022-10-16T01:39:32;9.63;;;6.80;;
11877;SDS011;5998;42.676;23.268;2022-10-16T01:42:03;8.80;;;6.63;;
11877;SDS011;5998;42.676;23.268;2022-10-16T01:44:35;9.83;;;7.00;;
11877;SDS011;5998;42.676;23.268;2022-10-16T01:47:05;11.33;;;7.03;;
11877;SDS011;5998;42.676;23.268;2022-10-16T01:49:36;9.30;;;7.03;;
11877;SDS011;5998;42.676;23.268;2022-10-16T01:52:05;11.17;;;7.70;;
11877;SDS011;5998;42.676;23.268;2022-10-16T01:54:35;10.77;;;7.30;;
11877;SDS011;5998;42.676;23.268;2022-10-16T01:57:04;9.00;;;7.00;;
11877;SDS011;5998;42.676;23.268;2022-10-16T01:59:35;7.13;;;6.10;;
11877;SDS011;5998;42.676;23.268;2022-10-16T02:02:09;11.73;;;7.47;;
11877;SDS011;5998;42.676;23.268;2022-10-16T02:04:37;11.63;;;8.03;;
11877;SDS011;5998;42.676;23.268;2022-10-16T02:07:08;199.97;;;21.67;;
11877;SDS011;5998;42.676;23.268;2022-10-16T02:09:35;261.63;;;18.77;;
11877;SDS011;5998;42.676;23.268;2022-10-16T02:12:04;11.20;;;8.30;;
11877;SDS011;5998;42.676;23.268;2022-10-16T02:14:36;12.10;;;7.83;;
11877;SDS011;5998;42.676;23.268;2022-10-16T02:17:10;9.17;;;7.23;;
11877;SDS011;5998;42.676;23.268;2022-10-16T02:19:38;11.37;;;7.27;;
11877;SDS011;5998;42.676;23.268;2022-10-16T02:22:05;9.13;;;7.47;;
11877;SDS011;5998;42.676;23.268;2022-10-16T02:24:35;10.67;;;7.53;;
11877;SDS011;5998;42.676;23.268;2022-10-16T02:27:09;10.23;;;7.50;;
11877;SDS011;5998;42.676;23.268;2022-10-16T02:29:40;11.53;;;7.23;;
11877;SDS011;5998;42.676;23.268;2022-10-16T02:32:13;9.77;;;8.10;;
11877;SDS011;5998;42.676;23.268;2022-10-16T02:34:42;11.67;;;8.03;;
11877;SDS011;5998;42.676;23.268;2022-10-16T02:37:10;10.70;;;7.80;;
11877;SDS011;5998;42.676;23.268;2022-10-16T02:39:37;11.70;;;7.50;;
11877;SDS011;5998;42.676;23.268;2022-10-16T02:42:09;9.97;;;7.70;;
11877;SDS011;5998;42.676;23.268;2022-10-16T02:44:36;9.60;;;7.90;;
11877;SDS011;5998;42.676;23.268;2022-10-16T02:47:04;12.97;;;7.33;;
11877;SDS011;5998;42.676;23.268;2022-10-16T02:49:31;11.20;;;8.80;;
11877;SDS011;5998;42.676;23.268;2022-10-16T02:51:57;10.90;;;7.43;;
11877;SDS011;5998;42.676;23.268;2022-10-16T02:54:24;10.50;;;7.40;;
11877;SDS011;5998;42.676;23.268;2022-10-16T02:56:51;13.70;;;8.00;;
11877;SDS011;5998;42.676;23.268;2022-10-16T02:59:18;7.97;;;7.17;;
11877;SDS011;5998;42.676;23.268;2022-10-16T03:01:44;10.30;;;8.30;;
11877;SDS011;5998;42.676;23.268;2022-10-16T03:04:12;9.17;;;7.50;;
11877;SDS011;5998;42.676;23.268;2022-10-16T03:06:40;10.73;;;7.47;;
11877;SDS011;5998;42.676;23.268;2022-10-16T03:09:06;13.33;;;8.10;;
11877;SDS011;5998;42.676;23.268;2022-10-16T03:11:33;12.00;;;8.20;;
11877;SDS011;5998;42.676;23.268;2022-10-16T03:14:00;9.97;;;7.43;;
11877;SDS011;5998;42.676;23.268;2022-10-16T03:16:26;10.53;;;7.67;;
11877;SDS011;5998;42.676;23.268;2022-10-16T03:18:53;10.43;;;7.37;;
11877;SDS011;5998;42.676;23.268;2022-10-16T03:21:21;9.93;;;6.90;;
11877;SDS011;5998;42.676;23.268;2022-10-16T03:23:48;10.47;;;7.47;;
11877;SDS011;5998;42.676;23.268;2022-10-16T03:26:15;11.13;;;7.93;;
11877;SDS011;5998;42.676;23.268;2022-10-16T03:28:41;11.50;;;7.70;;
11877;SDS011;5998;42.676;23.268;2022-10-16T03:31:08;8.20;;;7.30;;
11877;SDS011;5998;42.676;23.268;2022-10-16T03:33:35;10.07;;;7.50;;
11877;SDS011;5998;42.676;23.268;2022-10-16T03:36:01;8.10;;;6.90;;
11877;SDS011;5998;42.676;23.268;2022-10-16T03:38:30;10.87;;;7.77;;
11877;SDS011;5998;42.676;23.268;2022-10-16T03:40:56;10.00;;;7.57;;
11877;SDS011;5998;42.676;23.268;2022-10-16T03:43:23;10.63;;;6.83;;
11877;SDS011;5998;42.676;23.268;2022-10-16T03:45:50;7.80;;;6.97;;
11877;SDS011;5998;42.676;23.268;2022-10-16T03:48:17;9.67;;;7.70;;
11877;SDS011;5998;42.676;23.268;2022-10-16T03:50:44;10.37;;;7.60;;
11877;SDS011;5998;42.676;23.268;2022-10-16T03:53:11;10.00;;;7.23;;
11877;SDS011;5998;42.676;23.268;2022-10-16T03:55:40;10.03;;;7.33;;
11877;SDS011;5998;42.676;23.268;2022-10-16T03:58:07;13.50;;;7.70;;
11877;SDS011;5998;42.676;23.268;2022-10-16T04:00:34;8.33;;;7.40;;
11877;SDS011;5998;42.676;23.268;2022-10-16T04:03:01;13.50;;;7.77;;
11877;SDS011;5998;42.676;23.268;2022-10-16T04:05:28;11.50;;;7.07;;
11877;SDS011;5998;42.676;23.268;2022-10-16T04:07:54;11.03;;;8.47;;
11877;SDS011;5998;42.676;23.268;2022-10-16T04:10:21;12.90;;;7.67;;
11877;SDS011;5998;42.676;23.268;2022-10-16T04:12:49;8.77;;;7.20;;
11877;SDS011;5998;42.676;23.268;2022-10-16T04:15:16;9.57;;;7.30;;
11877;SDS011;5998;42.676;23.268;2022-10-16T04:17:43;10.97;;;7.87;;
11877;SDS011;5998;42.676;23.268;2022-10-16T04:20:10;11.07;;;8.27;;
11877;SDS011;5998;42.676;23.268;2022-10-16T04:22:36;9.83;;;7.77;;
11877;SDS011;5998;42.676;23.268;2022-10-16T04:25:04;8.87;;;7.63;;
11877;SDS011;5998;42.676;23.268;2022-10-16T04:27:31;9.63;;;7.43;;
11877;SDS011;5998;42.676;23.268;2022-10-16T04:29:59;10.63;;;7.40;;
11877;SDS011;5998;42.676;23.268;2022-10-16T04:32:27;9.93;;;7.30;;
11877;SDS011;5998;42.676;23.268;2022-10-16T04:34:53;10.00;;;7.23;;
11877;SDS011;5998;42.676;23.268;2022-10-16T04:37:22;10.17;;;7.20;;
11877;SDS011;5998;42.676;23.268;2022-10-16T04:39:50;9.97;;;7.90;;
11877;SDS011;5998;42.676;23.268;2022-10-16T04:42:17;10.63;;;7.93;;
11877;SDS011;5998;42.676;23.268;2022-10-16T04:44:43;9.23;;;8.27;;
11877;SDS011;5998;42.676;23.268;2022-10-16T04:47:11;11.50;;;8.93;;
11877;SDS011;5998;42.676;23.268;2022-10-16T04:49:38;12.57;;;8.10;;
11877;SDS011;5998;42.676;23.268;2022-10-16T04:52:05;10.30;;;7.80;;
11877;SDS011;5998;42.676;23.268;2022-10-16T04:54:34;8.47;;;7.50;;
11877;SDS011;5998;42.676;23.268;2022-10-16T04:57:00;9.97;;;7.93;;
11877;SDS011;5998;42.676;23.268;2022-10-16T04:59:27;9.10;;;7.83;;
11877;SDS011;5998;42.676;23.268;2022-10-16T05:01:54;9.93;;;7.57;;
11877;SDS011;5998;42.676;23.268;2022-10-16T05:04:22;9.83;;;7.77;;
11877;SDS011;5998;42.676;23.268;2022-10-16T05:06:49;9.47;;;7.47;;
11877;SDS011;5998;42.676;23.268;2022-10-16T05:09:15;9.40;;;7.63;;
11877;SDS011;5998;42.676;23.268;2022-10-16T05:11:42;8.67;;;7.73;;
11877;SDS011;5998;42.676;23.268;2022-10-16T05:14:09;9.77;;;8.13;;
11877;SDS011;5998;42.676;23.268;2022-10-16T05:16:36;11.33;;;8.37;;
11877;SDS011;5998;42.676;23.268;2022-10-16T05:19:02;10.20;;;8.50;;
11877;SDS011;5998;42.676;23.268;2022-10-16T05:21:31;11.67;;;8.90;;
11877;SDS011;5998;42.676;23.268;2022-10-16T05:23:57;11.33;;;8.03;;
11877;SDS011;5998;42.676;23.268;2022-10-16T05:26:24;14.43;;;8.30;;
11877;SDS011;5998;42.676;23.268;2022-10-16T05:28:51;13.97;;;8.87;;
11877;SDS011;5998;42.676;23.268;2022-10-16T05:31:17;11.87;;;8.73;;
11877;SDS011;5998;42.676;23.268;2022-10-16T05:33:44;14.07;;;8.83;;
11877;SDS011;5998;42.676;23.268;2022-10-16T05:36:11;14.27;;;9.90;;
11877;SDS011;5998;42.676;23.268;2022-10-16T05:38:39;17.33;;;9.27;;
11877;SDS011;5998;42.676;23.268;2022-10-16T05:41:06;16.87;;;9.77;;
11877;SDS011;5998;42.676;23.268;2022-10-16T05:43:33;16.27;;;10.90;;
11877;SDS011;5998;42.676;23.268;2022-10-16T05:46:02;17.37;;;11.23;;
11877;SDS011;5998;42.676;23.268;2022-10-16T05:48:30;14.97;;;11.23;;
11877;SDS011;5998;42.676;23.268;2022-10-16T05:50:57;12.27;;;10.90;;
11877;SDS011;5998;42.676;23.268;2022-10-16T05:53:26;13.70;;;10.20;;
11877;SDS011;5998;42.676;23.268;2022-10-16T05:55:55;11.60;;;10.07;;
11877;SDS011;5998;42.676;23.268;2022-10-16T05:58:22;11.20;;;10.10;;
11877;SDS011;5998;42.676;23.268;2022-10-16T06:00:53;11.30;;;10.10;;
11877;SDS011;5998;42.676;23.268;2022-10-16T06:03:20;10.93;;;9.73;;
11877;SDS011;5998;42.676;23.268;2022-10-16T06:05:47;10.90;;;9.80;;
11877;SDS011;5998;42.676;23.268;2022-10-16T06:08:14;11.20;;;10.00;;
11877;SDS011;5998;42.676;23.268;2022-10-16T06:10:40;13.90;;;9.70;;
11877;SDS011;5998;42.676;23.268;2022-10-16T06:13:10;13.07;;;10.13;;
11877;SDS011;5998;42.676;23.268;2022-10-16T06:15:37;12.47;;;9.57;;
11877;SDS011;5998;42.676;23.268;2022-10-16T06:18:04;11.30;;;9.60;;
11877;SDS011;5998;42.676;23.268;2022-10-16T06:20:31;11.17;;;9.97;;
11877;SDS011;5998;42.676;23.268;2022-10-16T06:22:58;12.17;;;9.57;;
11877;SDS011;5998;42.676;23.268;2022-10-16T06:25:24;13.23;;;9.67;;
11877;SDS011;5998;42.676;23.268;2022-10-16T06:27:51;13.43;;;9.87;;
11877;SDS011;5998;42.676;23.268;2022-10-16T06:30:19;13.17;;;10.00;;
11877;SDS011;5998;42.676;23.268;2022-10-16T06:32:46;12.17;;;10.10;;
11877;SDS011;5998;42.676;23.268;2022-10-16T06:35:13;11.37;;;9.87;;
11877;SDS011;5998;42.676;23.268;2022-10-16T06:37:39;12.00;;;10.23;;
11877;SDS011;5998;42.676;23.268;2022-10-16T06:40:06;11.90;;;10.20;;
11877;SDS011;5998;42.676;23.268;2022-10-16T06:42:33;14.63;;;11.00;;
11877;SDS011;5998;42.676;23.268;2022-10-16T06:45:00;13.33;;;10.70;;
11877;SDS011;5998;42.676;23.268;2022-10-16T06:47:28;12.80;;;10.77;;
11877;SDS011;5998;42.676;23.268;2022-10-16T06:49:55;13.80;;;11.47;;
11877;SDS011;5998;42.676;23.268;2022-10-16T06:52:22;14.57;;;10.97;;
11877;SDS011;5998;42.676;23.268;2022-10-16T06:54:49;13.23;;;10.73;;
11877;SDS011;5998;42.676;23.268;2022-10-16T06:57:16;16.07;;;11.70;;
11877;SDS011;5998;42.676;23.268;2022-10-16T06:59:42;15.10;;;10.27;;
11877;SDS011;5998;42.676;23.268;2022-10-16T07:02:09;12.50;;;9.97;;
11877;SDS011;5998;42.676;23.268;2022-10-16T07:04:37;16.73;;;10.23;;
11877;SDS011;5998;42.676;23.268;2022-10-16T07:07:04;14.53;;;10.53;;
11877;SDS011;5998;42.676;23.268;2022-10-16T07:09:31;14.57;;;11.30;;
11877;SDS011;5998;42.676;23.268;2022-10-16T07:11:57;12.17;;;10.03;;
11877;SDS011;5998;42.676;23.268;2022-10-16T07:14:24;13.33;;;11.30;;
11877;SDS011;5998;42.676;23.268;2022-10-16T07:16:51;17.47;;;11.83;;
11877;SDS011;5998;42.676;23.268;2022-10-16T07:19:17;15.00;;;11.67;;
11877;SDS011;5998;42.676;23.268;2022-10-16T07:21:45;14.23;;;11.77;;
11877;SDS011;5998;42.676;23.268;2022-10-16T07:24:13;14.83;;;11.17;;
11877;SDS011;5998;42.676;23.268;2022-10-16T07:26:42;16.80;;;12.57;;
11877;SDS011;5998;42.676;23.268;2022-10-16T07:29:11;14.97;;;11.20;;
11877;SDS011;5998;42.676;23.268;2022-10-16T07:31:39;12.63;;;10.93;;
11877;SDS011;5998;42.676;23.268;2022-10-16T07:34:06;13.53;;;10.97;;
11877;SDS011;5998;42.676;23.268;2022-10-16T07:36:33;15.63;;;10.40;;
11877;SDS011;5998;42.676;23.268;2022-10-16T07:39:01;11.50;;;9.87;;
11877;SDS011;5998;42.676;23.268;2022-10-16T07:41:27;16.70;;;11.00;;
11877;SDS011;5998;42.676;23.268;2022-10-16T07:43:54;15.47;;;10.90;;
11877;SDS011;5998;42.676;23.268;2022-10-16T07:46:24;13.93;;;9.67;;
11877;SDS011;5998;42.676;23.268;2022-10-16T07:48:52;14.10;;;10.50;;
11877;SDS011;5998;42.676;23.268;2022-10-16T07:51:19;14.17;;;10.30;;
11877;SDS011;5998;42.676;23.268;2022-10-16T07:53:47;14.40;;;10.63;;
11877;SDS011;5998;42.676;23.268;2022-10-16T07:56:16;18.23;;;10.87;;
11877;SDS011;5998;42.676;23.268;2022-10-16T07:58:44;14.03;;;10.27;;
11877;SDS011;5998;42.676;23.268;2022-10-16T08:01:11;12.87;;;10.60;;
11877;SDS011;5998;42.676;23.268;2022-10-16T08:03:41;15.37;;;10.23;;
11877;SDS011;5998;42.676;23.268;2022-10-16T08:06:08;11.60;;;9.33;;
11877;SDS011;5998;42.676;23.268;2022-10-16T08:08:35;11.47;;;10.20;;
11877;SDS011;5998;42.676;23.268;2022-10-16T08:11:02;14.30;;;11.47;;
11877;SDS011;5998;42.676;23.268;2022-10-16T08:13:30;17.77;;;12.33;;
11877;SDS011;5998;42.676;23.268;2022-10-16T08:15:57;13.33;;;11.97;;
11877;SDS011;5998;42.676;23.268;2022-10-16T08:18:24;10.90;;;9.80;;
11877;SDS011;5998;42.676;23.268;2022-10-16T08:20:54;12.57;;;10.90;;
11877;SDS011;5998;42.676;23.268;2022-10-16T08:23:22;11.80;;;10.33;;
11877;SDS011;5998;42.676;23.268;2022-10-16T08:25:50;14.53;;;10.67;;
11877;SDS011;5998;42.676;23.268;2022-10-16T08:28:18;12.63;;;9.00;;
11877;SDS011;5998;42.676;23.268;2022-10-16T08:30:46;10.03;;;7.97;;
11877;SDS011;5998;42.676;23.268;2022-10-16T08:33:13;9.50;;;7.97;;
11877;SDS011;5998;42.676;23.268;2022-10-16T08:35:40;8.33;;;6.90;;
11877;SDS011;5998;42.676;23.268;2022-10-16T08:38:07;8.10;;;7.07;;
11877;SDS011;5998;42.676;23.268;2022-10-16T08:40:34;8.87;;;6.57;;
11877;SDS011;5998;42.676;23.268;2022-10-16T08:43:09;9.07;;;7.20;;
11877;SDS011;5998;42.676;23.268;2022-10-16T08:46:03;8.20;;;6.00;;
11877;SDS011;5998;42.676;23.268;2022-10-16T08:48:43;6.37;;;5.80;;
11877;SDS011;5998;42.676;23.268;2022-10-16T08:51:15;8.50;;;6.23;;
11877;SDS011;5998;42.676;23.268;2022-10-16T08:53:49;6.03;;;5.40;;
11877;SDS011;5998;42.676;23.268;2022-10-16T08:56:19;5.83;;;5.23;;
11877;SDS011;5998;42.676;23.268;2022-10-16T08:58:46;6.50;;;4.87;;
11877;SDS011;5998;42.676;23.268;2022-10-16T09:01:15;8.40;;;4.90;;
11877;SDS011;5998;42.676;23.268;2022-10-16T09:03:51;6.10;;;5.17;;
11877;SDS011;5998;42.676;23.268;2022-10-16T09:06:31;8.67;;;5.40;;
11877;SDS011;5998;42.676;23.268;2022-10-16T09:09:14;4.97;;;4.53;;
11877;SDS011;5998;42.676;23.268;2022-10-16T09:12:10;5.77;;;4.30;;
11877;SDS011;5998;42.676;23.268;2022-10-16T09:14:47;6.30;;;4.53;;
11877;SDS011;5998;42.676;23.268;2022-10-16T09:17:24;4.97;;;4.47;;
11877;SDS011;5998;42.676;23.268;2022-10-16T09:19:59;5.80;;;3.97;;
11877;SDS011;5998;42.676;23.268;2022-10-16T09:22:37;3.87;;;3.47;;
11877;SDS011;5998;42.676;23.268;2022-10-16T09:25:10;4.23;;;3.70;;
11877;SDS011;5998;42.676;23.268;2022-10-16T09:27:38;4.53;;;3.50;;
11877;SDS011;5998;42.676;23.268;2022-10-16T09:30:10;6.93;;;4.22;;
11877;SDS011;5998;42.676;23.268;2022-10-16T09:32:39;3.97;;;3.60;;
11877;SDS011;5998;42.676;23.268;2022-10-16T09:35:11;5.10;;;4.00;;
11877;SDS011;5998;42.676;23.268;2022-10-16T09:37:42;5.70;;;3.70;;
11877;SDS011;5998;42.676;23.268;2022-10-16T09:40:12;5.23;;;3.77;;
11877;SDS011;5998;42.676;23.268;2022-10-16T09:42:40;5.87;;;4.03;;
11877;SDS011;5998;42.676;23.268;2022-10-16T09:45:19;3.90;;;3.50;;
11877;SDS011;5998;42.676;23.268;2022-10-16T09:47:49;3.70;;;3.40;;
11877;SDS011;5998;42.676;23.268;2022-10-16T09:50:20;4.63;;;3.60;;
11877;SDS011;5998;42.676;23.268;2022-10-16T09:52:50;3.43;;;3.13;;
11877;SDS011;5998;42.676;23.268;2022-10-16T09:55:17;5.60;;;3.93;;
11877;SDS011;5998;42.676;23.268;2022-10-16T09:57:50;4.07;;;3.53;;
11877;SDS011;5998;42.676;23.268;2022-10-16T10:00:17;4.80;;;3.40;;
11877;SDS011;5998;42.676;23.268;2022-10-16T10:02:45;5.03;;;2.90;;
11877;SDS011;5998;42.676;23.268;2022-10-16T10:05:20;5.47;;;3.20;;
11877;SDS011;5998;42.676;23.268;2022-10-16T10:07:53;4.30;;;3.63;;
11877;SDS011;5998;42.676;23.268;2022-10-16T10:10:22;4.27;;;3.30;;
11877;SDS011;5998;42.676;23.268;2022-10-16T10:12:51;4.63;;;3.20;;
11877;SDS011;5998;42.676;23.268;2022-10-16T10:15:18;9.23;;;3.50;;
11877;SDS011;5998;42.676;23.268;2022-10-16T10:17:47;4.13;;;3.57;;
11877;SDS011;5998;42.676;23.268;2022-10-16T10:20:23;4.13;;;3.40;;
11877;SDS011;5998;42.676;23.268;2022-10-16T10:22:52;3.97;;;3.57;;
11877;SDS011;5998;42.676;23.268;2022-10-16T10:25:32;4.20;;;3.43;;
11877;SDS011;5998;42.676;23.268;2022-10-16T10:28:15;6.37;;;4.47;;
11877;SDS011;5998;42.676;23.268;2022-10-16T10:30:54;5.13;;;3.43;;
11877;SDS011;5998;42.676;23.268;2022-10-16T10:33:28;4.90;;;3.77;;
11877;SDS011;5998;42.676;23.268;2022-10-16T10:36:07;3.10;;;2.80;;
11877;SDS011;5998;42.676;23.268;2022-10-16T10:38:43;3.30;;;3.00;;
11877;SDS011;5998;42.676;23.268;2022-10-16T10:44:11;4.40;;;2.97;;
11877;SDS011;5998;42.676;23.268;2022-10-16T10:46:48;3.33;;;2.77;;
11877;SDS011;5998;42.676;23.268;2022-10-16T10:49:22;4.10;;;2.90;;
11877;SDS011;5998;42.676;23.268;2022-10-16T10:52:05;3.60;;;3.30;;
11877;SDS011;5998;42.676;23.268;2022-10-16T10:54:48;3.90;;;2.80;;
11877;SDS011;5998;42.676;23.268;2022-10-16T10:57:22;4.10;;;2.90;;
11877;SDS011;5998;42.676;23.268;2022-10-16T11:00:06;3.17;;;2.90;;
11877;SDS011;5998;42.676;23.268;2022-10-16T11:02:44;4.27;;;3.40;;
11877;SDS011;5998;42.676;23.268;2022-10-16T11:05:23;4.10;;;3.47;;
11877;SDS011;5998;42.676;23.268;2022-10-16T11:08:02;4.50;;;3.07;;
11877;SDS011;5998;42.676;23.268;2022-10-16T11:10:38;4.17;;;3.53;;
11877;SDS011;5998;42.676;23.268;2022-10-16T11:13:14;4.17;;;3.07;;
11877;SDS011;5998;42.676;23.268;2022-10-16T11:15:48;2.80;;;2.60;;
11877;SDS011;5998;42.676;23.268;2022-10-16T11:18:21;4.53;;;3.10;;
11877;SDS011;5998;42.676;23.268;2022-10-16T11:20:52;4.10;;;2.90;;
11877;SDS011;5998;42.676;23.268;2022-10-16T11:23:25;3.17;;;2.93;;
11877;SDS011;5998;42.676;23.268;2022-10-16T11:25:56;7.40;;;3.60;;
11877;SDS011;5998;42.676;23.268;2022-10-16T11:28:27;7.63;;;3.80;;
11877;SDS011;5998;42.676;23.268;2022-10-16T11:30:59;3.10;;;2.87;;
11877;SDS011;5998;42.676;23.268;2022-10-16T11:33:32;3.13;;;2.93;;
11877;SDS011;5998;42.676;23.268;2022-10-16T11:36:07;6.63;;;3.10;;
11877;SDS011;5998;42.676;23.268;2022-10-16T11:38:41;5.27;;;2.60;;
11877;SDS011;5998;42.676;23.268;2022-10-16T11:41:17;3.47;;;2.73;;
11877;SDS011;5998;42.676;23.268;2022-10-16T11:43:50;3.10;;;2.90;;
11877;SDS011;5998;42.676;23.268;2022-10-16T11:46:24;3.57;;;3.27;;
11877;SDS011;5998;42.676;23.268;2022-10-16T11:48:54;6.33;;;3.43;;
11877;SDS011;5998;42.676;23.268;2022-10-16T11:51:30;4.00;;;2.77;;
11877;SDS011;5998;42.676;23.268;2022-10-16T11:54:04;3.10;;;2.57;;
11877;SDS011;5998;42.676;23.268;2022-10-16T11:56:40;3.53;;;3.10;;
11877;SDS011;5998;42.676;23.268;2022-10-16T11:59:12;3.77;;;3.17;;
11877;SDS011;5998;42.676;23.268;2022-10-16T12:01:46;4.93;;;2.80;;
11877;SDS011;5998;42.676;23.268;2022-10-16T12:04:20;3.37;;;2.80;;
11877;SDS011;5998;42.676;23.268;2022-10-16T12:06:55;3.27;;;2.70;;
11877;SDS011;5998;42.676;23.268;2022-10-16T12:09:27;3.23;;;2.47;;
11877;SDS011;5998;42.676;23.268;2022-10-16T12:11:56;3.23;;;2.93;;
11877;SDS011;5998;42.676;23.268;2022-10-16T12:14:34;2.60;;;2.40;;
11877;SDS011;5998;42.676;23.268;2022-10-16T12:19:57;2.83;;;2.63;;
11877;SDS011;5998;42.676;23.268;2022-10-16T12:22:25;2.93;;;2.70;;
11877;SDS011;5998;42.676;23.268;2022-10-16T12:24:56;3.30;;;2.73;;
11877;SDS011;5998;42.676;23.268;2022-10-16T12:27:24;3.73;;;2.67;;
11877;SDS011;5998;42.676;23.268;2022-10-16T12:29:54;4.57;;;2.70;;
11877;SDS011;5998;42.676;23.268;2022-10-16T12:32:25;4.23;;;2.60;;
11877;SDS011;5998;42.676;23.268;2022-10-16T12:34:56;3.10;;;2.80;;
11877;SDS011;5998;42.676;23.268;2022-10-16T12:37:25;2.87;;;2.63;;
11877;SDS011;5998;42.676;23.268;2022-10-16T12:39:55;2.67;;;2.47;;
11877;SDS011;5998;42.676;23.268;2022-10-16T12:42:44;6.70;;;2.53;;
11877;SDS011;5998;42.676;23.268;2022-10-16T12:45:24;3.80;;;2.60;;
11877;SDS011;5998;42.676;23.268;2022-10-16T12:47:53;3.30;;;2.53;;
11877;SDS011;5998;42.676;23.268;2022-10-16T12:50:32;4.40;;;2.93;;
11877;SDS011;5998;42.676;23.268;2022-10-16T12:53:00;4.07;;;2.70;;
11877;SDS011;5998;42.676;23.268;2022-10-16T12:55:32;3.37;;;2.57;;
11877;SDS011;5998;42.676;23.268;2022-10-16T12:58:11;3.57;;;2.90;;
11877;SDS011;5998;42.676;23.268;2022-10-16T13:00:48;4.60;;;2.90;;
11877;SDS011;5998;42.676;23.268;2022-10-16T13:06:19;3.13;;;2.87;;
11877;SDS011;5998;42.676;23.268;2022-10-16T13:11:51;5.10;;;3.03;;
11877;SDS011;5998;42.676;23.268;2022-10-16T13:14:33;3.30;;;3.00;;
11877;SDS011;5998;42.676;23.268;2022-10-16T13:17:13;5.00;;;2.60;;
11877;SDS011;5998;42.676;23.268;2022-10-16T13:19:48;2.67;;;2.30;;
11877;SDS011;5998;42.676;23.268;2022-10-16T13:22:24;3.20;;;2.90;;
11877;SDS011;5998;42.676;23.268;2022-10-16T13:25:00;2.97;;;2.60;;
11877;SDS011;5998;42.676;23.268;2022-10-16T13:27:37;4.33;;;3.13;;
11877;SDS011;5998;42.676;23.268;2022-10-16T13:30:13;4.57;;;2.93;;
11877;SDS011;5998;42.676;23.268;2022-10-16T13:32:44;3.80;;;2.70;;
11877;SDS011;5998;42.676;23.268;2022-10-16T13:35:19;4.90;;;2.70;;
11877;SDS011;5998;42.676;23.268;2022-10-16T13:37:47;2.93;;;2.60;;
11877;SDS011;5998;42.676;23.268;2022-10-16T13:40:18;2.53;;;2.43;;
11877;SDS011;5998;42.676;23.268;2022-10-16T13:42:47;2.93;;;2.57;;
11877;SDS011;5998;42.676;23.268;2022-10-16T13:45:18;3.40;;;2.90;;
11877;SDS011;5998;42.676;23.268;2022-10-16T13:47:46;3.83;;;2.40;;
11877;SDS011;5998;42.676;23.268;2022-10-16T13:50:13;3.40;;;2.60;;
11877;SDS011;5998;42.676;23.268;2022-10-16T13:52:43;3.83;;;2.57;;
11877;SDS011;5998;42.676;23.268;2022-10-16T13:55:10;3.50;;;2.87;;
11877;SDS011;5998;42.676;23.268;2022-10-16T13:57:38;3.93;;;2.80;;
11877;SDS011;5998;42.676;23.268;2022-10-16T14:00:18;7.00;;;2.90;;
11877;SDS011;5998;42.676;23.268;2022-10-16T14:02:49;5.70;;;2.47;;
11877;SDS011;5998;42.676;23.268;2022-10-16T14:05:21;4.87;;;2.67;;
11877;SDS011;5998;42.676;23.268;2022-10-16T14:07:48;2.80;;;2.60;;
11877;SDS011;5998;42.676;23.268;2022-10-16T14:10:20;4.90;;;2.43;;
11877;SDS011;5998;42.676;23.268;2022-10-16T14:12:59;3.00;;;2.57;;
11877;SDS011;5998;42.676;23.268;2022-10-16T14:15:30;3.70;;;2.40;;
11877;SDS011;5998;42.676;23.268;2022-10-16T14:17:58;3.20;;;2.80;;
11877;SDS011;5998;42.676;23.268;2022-10-16T14:20:26;4.33;;;2.80;;
11877;SDS011;5998;42.676;23.268;2022-10-16T14:23:01;2.50;;;2.30;;
11877;SDS011;5998;42.676;23.268;2022-10-16T14:25:29;3.27;;;2.70;;
11877;SDS011;5998;42.676;23.268;2022-10-16T14:27:58;3.40;;;2.17;;
11877;SDS011;5998;42.676;23.268;2022-10-16T14:30:27;3.33;;;2.70;;
11877;SDS011;5998;42.676;23.268;2022-10-16T14:32:56;3.87;;;2.10;;
11877;SDS011;5998;42.676;23.268;2022-10-16T14:35:25;3.50;;;2.30;;
11877;SDS011;5998;42.676;23.268;2022-10-16T14:37:54;3.60;;;2.40;;
11877;SDS011;5998;42.676;23.268;2022-10-16T14:40:23;3.67;;;2.57;;
11877;SDS011;5998;42.676;23.268;2022-10-16T14:42:52;3.17;;;2.33;;
11877;SDS011;5998;42.676;23.268;2022-10-16T14:45:20;3.87;;;2.60;;
11877;SDS011;5998;42.676;23.268;2022-10-16T14:47:49;2.80;;;2.40;;
11877;SDS011;5998;42.676;23.268;2022-10-16T14:50:20;7.33;;;3.00;;
11877;SDS011;5998;42.676;23.268;2022-10-16T14:52:47;4.37;;;2.50;;
11877;SDS011;5998;42.676;23.268;2022-10-16T14:55:14;2.20;;;2.00;;
11877;SDS011;5998;42.676;23.268;2022-10-16T14:57:42;3.77;;;2.57;;
11877;SDS011;5998;42.676;23.268;2022-10-16T15:00:13;3.20;;;2.77;;
11877;SDS011;5998;42.676;23.268;2022-10-16T15:02:43;3.77;;;2.40;;
11877;SDS011;5998;42.676;23.268;2022-10-16T15:05:11;5.63;;;2.63;;
11877;SDS011;5998;42.676;23.268;2022-10-16T15:07:43;2.97;;;2.40;;
11877;SDS011;5998;42.676;23.268;2022-10-16T15:10:10;3.03;;;2.43;;